Time;durP1;ratioP1;P1;durP2;ratioP2;P2;SDS_P1;SDS_P2;PMS_P1;PMS_P2;Temp;Humidity;BMP_temperature;BMP_pressure;BME280_temperature;BME280_humidity;BME280_pressure;Samples;Min_cycle;Max_cycle;Signal;HPM_P1;HPM_P2
2022/08/24 00:02:09;;;;;;;3.90;2.67;;;20.20;99.90;;;;;;5017136;28;20204;-73
2022/08/24 00:04:35;;;;;;;4.63;3.38;;;20.20;99.90;;;;;;5013624;28;20232;-72
2022/08/24 00:07:03;;;;;;;5.38;3.10;;;20.20;99.90;;;;;;5016144;28;20188;-72
2022/08/24 00:09:30;;;;;;;6.28;2.95;;;20.20;99.90;;;;;;5016853;28;20646;-72
2022/08/24 00:11:56;;;;;;;8.10;3.42;;;20.20;99.90;;;;;;5014429;28;20221;-72
2022/08/24 00:14:21;;;;;;;5.18;3.47;;;20.20;99.90;;;;;;5018406;28;20205;-71
2022/08/24 00:16:47;;;;;;;4.63;3.42;;;20.20;99.90;;;;;;5012305;28;20210;-72
2022/08/24 00:19:12;;;;;;;6.18;3.60;;;20.20;99.90;;;;;;5019798;28;20216;-72
2022/08/24 00:21:38;;;;;;;7.07;2.90;;;20.10;99.90;;;;;;5020090;28;20661;-72
2022/08/24 00:24:04;;;;;;;5.88;3.15;;;20.10;99.90;;;;;;5016762;28;20245;-72
2022/08/24 00:26:30;;;;;;;7.57;3.30;;;20.10;99.90;;;;;;5015260;28;20209;-72
2022/08/24 00:28:57;;;;;;;5.30;3.15;;;20.10;99.90;;;;;;5019170;28;20215;-72
2022/08/24 00:31:23;;;;;;;7.15;3.53;;;20.10;99.90;;;;;;5019844;28;20270;-72
2022/08/24 00:33:49;;;;;;;9.07;3.30;;;20.10;99.90;;;;;;5015429;28;20182;-72
2022/08/24 00:36:14;;;;;;;7.47;3.63;;;20.00;99.90;;;;;;5018550;28;20183;-72
2022/08/24 00:38:40;;;;;;;5.40;3.30;;;20.00;99.90;;;;;;5018811;28;20258;-72
2022/08/24 00:41:05;;;;;;;5.18;3.38;;;20.00;99.90;;;;;;5017618;28;20293;-72
2022/08/24 00:43:32;;;;;;;4.97;3.05;;;20.00;99.90;;;;;;5014523;28;20212;-72
2022/08/24 00:46:15;;;;;;;6.82;4.38;;;20.00;99.90;;;;;;5022343;28;20558;-72
2022/08/24 00:48:46;;;;;;;6.43;3.42;;;20.00;99.90;;;;;;5021100;28;20201;-72
2022/08/24 00:51:29;;;;;;;6.95;3.15;;;19.90;99.90;;;;;;5014954;28;20212;-72
2022/08/24 00:54:05;;;;;;;4.90;3.78;;;19.90;99.90;;;;;;5018424;28;20205;-72
2022/08/24 00:56:38;;;;;;;8.45;3.83;;;19.90;99.90;;;;;;5017230;28;20714;-72
2022/08/24 00:59:13;;;;;;;7.32;3.78;;;19.90;99.90;;;;;;5012966;28;20217;-72
2022/08/24 01:01:39;;;;;;;5.45;3.65;;;19.80;99.90;;;;;;5012740;28;20286;-73
2022/08/24 01:04:09;;;;;;;6.10;3.60;;;19.90;99.90;;;;;;5021132;28;20203;-73
2022/08/24 01:06:35;;;;;;;5.18;3.38;;;19.80;99.90;;;;;;5018509;28;20523;-73
2022/08/24 01:09:01;;;;;;;6.90;3.78;;;19.80;99.90;;;;;;5015562;28;20253;-73
2022/08/24 01:11:29;;;;;;;6.00;3.47;;;19.80;99.90;;;;;;5016418;28;20205;-73
2022/08/24 01:13:55;;;;;;;6.38;3.63;;;19.80;99.90;;;;;;5022504;28;20614;-73
2022/08/24 01:19:16;;;;;;;6.47;3.72;;;19.80;99.90;;;;;;5018373;28;20621;-72
2022/08/24 01:22:03;;;;;;;10.95;3.85;;;19.70;99.90;;;;;;5019231;28;20654;-73
2022/08/24 01:24:29;;;;;;;7.75;3.92;;;19.80;99.90;;;;;;5013146;28;20290;-73
2022/08/24 01:26:54;;;;;;;6.35;3.90;;;19.80;99.90;;;;;;5015581;28;20688;-73
2022/08/24 01:29:25;;;;;;;8.15;3.58;;;19.70;99.90;;;;;;5016518;28;20201;-73
2022/08/24 01:31:51;;;;;;;6.85;3.90;;;19.70;99.90;;;;;;5023296;28;20209;-73
2022/08/24 01:34:16;;;;;;;5.30;3.75;;;19.70;99.90;;;;;;5015125;28;20213;-73
2022/08/24 01:36:59;;;;;;;6.65;3.58;;;19.70;99.90;;;;;;5015714;28;20173;-73
2022/08/24 01:39:43;;;;;;;9.15;4.55;;;19.70;99.90;;;;;;5018017;28;20213;-73
2022/08/24 01:42:09;;;;;;;7.25;3.95;;;19.60;99.90;;;;;;5013553;28;20731;-73
2022/08/24 01:44:37;;;;;;;6.03;3.38;;;19.50;99.90;;;;;;5013095;28;20351;-73
2022/08/24 01:47:04;;;;;;;5.13;4.15;;;19.50;99.90;;;;;;5019468;28;20578;-73
2022/08/24 01:49:32;;;;;;;9.10;3.92;;;19.50;99.90;;;;;;5017524;28;20201;-73
2022/08/24 01:51:58;;;;;;;9.73;4.90;;;19.50;99.90;;;;;;5014758;28;20274;-73
2022/08/24 01:54:25;;;;;;;7.10;4.00;;;19.50;99.90;;;;;;5016621;28;20255;-73
2022/08/24 01:56:51;;;;;;;8.18;4.55;;;19.50;99.90;;;;;;5021629;28;20201;-73
2022/08/24 01:59:19;;;;;;;7.45;4.93;;;19.50;99.90;;;;;;5007544;28;20293;-73
2022/08/24 02:01:52;;;;;;;7.95;4.57;;;19.50;99.90;;;;;;5012966;28;20208;-73
2022/08/24 02:04:18;;;;;;;8.88;5.15;;;19.40;99.90;;;;;;5018367;28;20731;-73
2022/08/24 02:06:43;;;;;;;6.43;5.28;;;19.40;99.90;;;;;;5016179;28;20186;-73
2022/08/24 02:09:09;;;;;;;8.43;5.70;;;19.40;99.90;;;;;;5016642;28;20218;-73
2022/08/24 02:11:36;;;;;;;5.40;4.55;;;19.40;99.90;;;;;;5014580;28;20205;-73
2022/08/24 02:14:02;;;;;;;9.15;5.53;;;19.50;99.90;;;;;;5020878;28;20550;-73
2022/08/24 02:16:27;;;;;;;10.35;6.07;;;19.40;99.90;;;;;;5009512;28;20259;-72
2022/08/24 02:18:53;;;;;;;9.48;5.80;;;19.50;99.90;;;;;;5008477;28;20227;-74
2022/08/24 02:21:18;;;;;;;10.43;7.03;;;19.50;99.90;;;;;;5020291;28;20180;-73
2022/08/24 02:23:44;;;;;;;15.40;8.38;;;19.60;99.90;;;;;;5025022;28;20211;-73
2022/08/24 02:26:10;;;;;;;11.80;9.00;;;19.60;99.90;;;;;;5022879;28;20286;-73
2022/08/24 02:28:37;;;;;;;15.35;9.82;;;19.60;99.90;;;;;;5021759;28;20197;-73
2022/08/24 02:31:04;;;;;;;17.92;11.65;;;19.50;99.90;;;;;;5021709;28;20672;-73
2022/08/24 02:33:32;;;;;;;12.70;10.18;;;19.50;99.90;;;;;;5019448;28;20617;-73
2022/08/24 02:35:58;;;;;;;21.85;12.55;;;19.40;99.90;;;;;;5021328;28;20201;-73
2022/08/24 02:38:23;;;;;;;20.20;12.38;;;19.30;99.90;;;;;;5018863;28;20576;-73
2022/08/24 02:40:49;;;;;;;21.15;12.05;;;19.20;99.90;;;;;;5018897;28;20201;-73
2022/08/24 02:43:15;;;;;;;20.10;11.85;;;19.20;99.90;;;;;;5022263;28;20334;-73
2022/08/24 02:45:44;;;;;;;19.13;12.20;;;19.30;99.90;;;;;;5019866;28;20284;-73
2022/08/24 02:48:10;;;;;;;21.20;11.98;;;19.30;99.90;;;;;;5019107;28;20204;-72
2022/08/24 02:50:41;;;;;;;21.50;13.85;;;19.40;99.90;;;;;;5019134;28;20209;-73
2022/08/24 02:53:08;;;;;;;22.92;13.75;;;19.40;99.90;;;;;;5022395;28;20219;-73
2022/08/24 02:55:34;;;;;;;21.55;13.75;;;19.40;99.90;;;;;;5018714;28;20216;-73
2022/08/24 02:57:59;;;;;;;22.10;14.50;;;19.40;99.90;;;;;;5018905;28;20541;-73
2022/08/24 03:00:26;;;;;;;24.15;15.38;;;19.40;99.90;;;;;;5020770;28;20179;-73
2022/08/24 03:02:53;;;;;;;20.25;13.63;;;19.40;99.90;;;;;;5019799;28;20208;-73
2022/08/24 03:05:19;;;;;;;19.98;13.88;;;19.40;99.90;;;;;;5019103;28;20716;-73
2022/08/24 03:07:45;;;;;;;19.67;14.48;;;19.40;99.90;;;;;;5021684;28;20262;-73
2022/08/24 03:10:11;;;;;;;21.60;15.68;;;19.30;99.90;;;;;;5021845;28;20626;-73
2022/08/24 03:12:36;;;;;;;21.38;14.57;;;19.30;99.90;;;;;;5019717;28;20191;-73
2022/08/24 03:15:05;;;;;;;22.52;15.23;;;19.30;99.90;;;;;;5018597;28;20670;-73
2022/08/24 03:17:32;;;;;;;19.55;14.43;;;19.30;99.90;;;;;;5019796;28;20284;-73
2022/08/24 03:19:59;;;;;;;23.58;15.48;;;19.30;99.90;;;;;;5019136;28;20298;-73
2022/08/24 03:22:25;;;;;;;20.02;13.88;;;19.40;99.90;;;;;;5014479;28;20549;-73
2022/08/24 03:24:50;;;;;;;21.80;15.32;;;19.30;99.90;;;;;;5018658;28;20760;-73
2022/08/24 03:27:16;;;;;;;18.13;14.23;;;19.40;99.90;;;;;;5021649;28;20259;-73
2022/08/24 03:29:42;;;;;;;24.65;14.80;;;19.40;99.90;;;;;;5019528;28;20571;-73
2022/08/24 03:32:07;;;;;;;27.00;15.10;;;19.40;99.90;;;;;;5019907;28;20215;-73
2022/08/24 03:34:33;;;;;;;23.67;14.27;;;19.40;99.90;;;;;;5018269;28;20727;-74
2022/08/24 03:36:59;;;;;;;21.55;13.98;;;19.40;99.90;;;;;;5021669;28;20764;-73
2022/08/24 03:39:24;;;;;;;18.10;13.13;;;19.40;99.90;;;;;;5018483;28;20213;-73
2022/08/24 03:41:50;;;;;;;20.33;13.45;;;19.50;99.90;;;;;;5020796;28;20295;-73
2022/08/24 03:44:16;;;;;;;21.20;12.88;;;19.50;99.90;;;;;;5023572;28;20204;-73
2022/08/24 03:46:41;;;;;;;18.17;13.10;;;19.40;99.90;;;;;;5023272;28;20276;-73
2022/08/24 03:49:09;;;;;;;21.60;12.52;;;19.40;99.90;;;;;;5022659;28;20220;-73
2022/08/24 03:51:36;;;;;;;18.35;12.13;;;19.30;99.90;;;;;;5021832;28;20177;-72
2022/08/24 03:54:04;;;;;;;17.75;11.93;;;19.40;99.90;;;;;;5047511;23;20204;-68
2022/08/24 03:56:30;;;;;;;17.33;11.90;;;19.30;99.90;;;;;;5018845;28;20221;-69
2022/08/24 03:58:56;;;;;;;18.33;11.23;;;19.30;99.90;;;;;;5002013;28;20221;-67
2022/08/24 04:01:22;;;;;;;16.00;10.18;;;19.30;99.90;;;;;;5003753;28;20209;-67
2022/08/24 04:03:48;;;;;;;16.65;9.98;;;19.30;99.90;;;;;;5006897;28;20681;-66
2022/08/24 04:06:17;;;;;;;17.42;10.70;;;19.30;99.90;;;;;;5003912;28;20260;-68
2022/08/24 04:08:43;;;;;;;16.20;9.90;;;19.30;99.90;;;;;;5010693;28;20201;-69
2022/08/24 04:11:11;;;;;;;15.75;10.32;;;19.30;99.90;;;;;;5009127;28;20205;-68
2022/08/24 04:13:36;;;;;;;15.77;10.80;;;19.30;99.90;;;;;;5006999;28;20260;-69
2022/08/24 04:16:13;;;;;;;13.90;10.55;;;19.20;99.90;;;;;;5012010;28;20193;-69
2022/08/24 04:18:40;;;;;;;20.83;10.27;;;19.20;99.90;;;;;;5007847;28;20682;-68
2022/08/24 04:21:13;;;;;;;13.77;10.70;;;19.20;99.90;;;;;;5005701;28;20208;-66
2022/08/24 04:23:39;;;;;;;17.13;10.13;;;19.20;99.90;;;;;;5004682;28;20260;-69
2022/08/24 04:26:05;;;;;;;19.50;11.40;;;19.20;99.90;;;;;;5010022;28;20209;-68
2022/08/24 04:28:31;;;;;;;15.43;10.18;;;19.20;99.90;;;;;;5008123;28;20287;-68
2022/08/24 04:30:56;;;;;;;15.23;11.25;;;19.30;99.90;;;;;;5005593;28;20646;-67
2022/08/24 04:33:22;;;;;;;15.52;10.55;;;19.40;99.90;;;;;;5011030;28;20181;-68
2022/08/24 04:35:49;;;;;;;14.30;10.38;;;19.40;99.90;;;;;;5008649;28;21575;-69
2022/08/24 04:38:18;;;;;;;17.17;10.90;;;19.50;99.90;;;;;;5002688;28;20296;-69
2022/08/24 04:40:45;;;;;;;13.80;8.50;;;20.30;99.90;;;;;;5000728;28;20285;-69
2022/08/24 04:43:13;;;;;;;9.45;8.00;;;21.30;99.90;;;;;;5004666;28;20216;-68
2022/08/24 04:45:45;;;;;;;11.65;8.23;;;22.10;99.90;;;;;;5001953;28;20216;-67
2022/08/24 04:48:14;;;;;;;12.35;7.78;;;22.60;99.90;;;;;;5002409;28;20209;-69
2022/08/24 04:50:42;;;;;;;12.30;7.25;;;22.40;99.90;;;;;;5000962;28;20205;-71
2022/08/24 04:53:09;;;;;;;11.35;6.47;;;23.20;99.90;;;;;;5004390;28;20212;-68
2022/08/24 04:55:42;;;;;;;13.90;6.60;;;24.50;99.90;;;;;;5005664;28;20718;-67
2022/08/24 04:58:08;;;;;;;13.13;5.72;;;25.00;99.90;;;;;;5006823;28;20228;-68
2022/08/24 05:00:34;;;;;;;7.85;4.88;;;25.60;99.90;;;;;;5001906;28;20181;-69
2022/08/24 05:02:59;;;;;;;7.72;4.97;;;26.20;99.90;;;;;;5004452;28;20208;-70
2022/08/24 05:05:25;;;;;;;8.05;4.50;;;26.60;99.90;;;;;;5000689;28;20205;-70
2022/08/24 05:07:50;;;;;;;8.80;5.22;;;27.10;99.90;;;;;;5004541;28;20213;-68
2022/08/24 05:10:16;;;;;;;9.00;4.65;;;27.70;99.90;;;;;;5003278;28;20251;-69
2022/08/24 05:12:42;;;;;;;7.90;4.40;;;28.20;99.90;;;;;;5001500;28;20181;-69
2022/08/24 05:15:08;;;;;;;6.88;4.68;;;28.30;99.90;;;;;;5000810;28;20216;-68
2022/08/24 05:17:34;;;;;;;7.50;4.20;;;28.60;99.90;;;;;;5000401;28;20884;-67
2022/08/24 05:19:59;;;;;;;6.50;4.60;;;28.30;99.90;;;;;;5003677;28;20221;-68
2022/08/24 05:22:25;;;;;;;7.68;4.30;;;27.90;99.90;;;;;;5000301;28;20213;-69
2022/08/24 05:24:51;;;;;;;9.75;4.55;;;28.70;99.90;;;;;;5000750;28;20701;-70
2022/08/24 05:27:17;;;;;;;7.28;4.30;;;29.00;99.90;;;;;;5004605;28;20184;-68
2022/08/24 05:29:43;;;;;;;6.38;4.30;;;29.30;99.90;;;;;;5005757;28;20284;-69
2022/08/24 05:32:10;;;;;;;6.20;3.67;;;30.10;99.90;;;;;;5001423;28;20284;-70
2022/08/24 05:34:36;;;;;;;5.70;4.45;;;30.50;99.90;;;;;;5000622;28;20272;-69
2022/08/24 05:37:01;;;;;;;8.15;4.53;;;30.80;99.90;;;;;;5004822;28;20181;-70
2022/08/24 05:39:29;;;;;;;6.65;4.30;;;30.80;99.90;;;;;;5000699;28;20205;-69
2022/08/24 05:41:55;;;;;;;7.47;4.38;;;30.20;99.90;;;;;;5003241;28;20562;-69
2022/08/24 05:44:21;;;;;;;7.88;5.47;;;30.00;99.90;;;;;;5003285;28;20258;-71
2022/08/24 05:46:46;;;;;;;8.07;4.57;;;30.30;99.90;;;;;;5003374;28;20267;-69
2022/08/24 05:49:12;;;;;;;7.50;5.00;;;29.80;99.90;;;;;;5000685;28;20678;-70
2022/08/24 05:51:39;;;;;;;6.45;5.07;;;30.30;99.90;;;;;;5000105;28;20185;-66
2022/08/24 05:54:05;;;;;;;11.93;6.35;;;30.80;99.90;;;;;;5002969;28;20213;-69
2022/08/24 05:56:30;;;;;;;8.85;5.28;;;30.80;99.90;;;;;;4999920;28;20210;-68
2022/08/24 05:58:56;;;;;;;9.75;6.45;;;31.00;99.90;;;;;;4999774;28;20902;-67
2022/08/24 06:01:25;;;;;;;10.70;7.25;;;31.10;99.90;;;;;;5001502;28;20286;-67
2022/08/24 06:03:52;;;;;;;12.63;7.63;;;30.70;99.90;;;;;;5005623;28;20501;-66
2022/08/24 06:06:20;;;;;;;10.73;7.35;;;30.90;99.90;;;;;;5003626;28;20274;-67
2022/08/24 06:08:50;;;;;;;10.15;7.53;;;31.20;99.90;;;;;;4995483;28;20209;-68
2022/08/24 06:11:28;;;;;;;11.88;7.88;;;31.10;99.90;;;;;;5000896;28;20215;-67
2022/08/24 06:13:57;;;;;;;12.88;9.13;;;31.20;99.90;;;;;;5008184;28;20723;-69
2022/08/24 06:16:24;;;;;;;8.48;7.00;;;31.60;99.90;;;;;;4999683;28;20213;-69
2022/08/24 06:18:51;;;;;;;10.10;8.05;;;32.10;99.90;;;;;;5000823;28;20231;-69
2022/08/24 06:21:20;;;;;;;13.65;11.82;;;31.50;99.90;;;;;;5001314;28;20246;-69
2022/08/24 06:23:46;;;;;;;10.30;8.38;;;32.00;99.90;;;;;;4999122;28;20220;-67
2022/08/24 06:28:59;;;;;;;8.55;6.78;;;32.30;99.90;;;;;;5003928;28;20605;-69
2022/08/24 06:31:26;;;;;;;7.95;6.13;;;31.90;99.90;;;;;;4997681;28;20315;-69
2022/08/24 06:33:52;;;;;;;7.40;6.22;;;32.10;99.90;;;;;;4999815;28;20197;-69
2022/08/24 06:36:18;;;;;;;10.50;7.38;;;32.30;99.90;;;;;;5005620;28;20631;-69
2022/08/24 06:38:43;;;;;;;8.70;6.20;;;32.50;99.90;;;;;;5002218;28;20227;-69
2022/08/24 06:41:09;;;;;;;9.82;7.18;;;33.70;99.90;;;;;;4999292;28;20263;-68
2022/08/24 06:43:36;;;;;;;7.47;6.68;;;33.60;99.90;;;;;;5002662;28;20209;-68
2022/08/24 06:46:03;;;;;;;9.27;7.15;;;32.90;99.90;;;;;;5002644;28;20226;-69
2022/08/24 06:48:30;;;;;;;7.72;6.72;;;33.00;99.90;;;;;;4999711;28;20615;-68
2022/08/24 06:50:57;;;;;;;11.68;7.63;;;33.10;99.90;;;;;;5006218;28;20711;-70
2022/08/24 06:53:23;;;;;;;25.77;12.75;;;33.20;99.90;;;;;;4998783;28;20266;-69
2022/08/24 06:55:58;;;;;;;14.20;9.52;;;32.50;99.90;;;;;;5002842;28;20224;-68
2022/08/24 06:58:27;;;;;;;19.42;8.68;;;31.20;99.90;;;;;;4998688;28;20764;-69
2022/08/24 07:00:55;;;;;;;12.07;8.38;;;29.40;99.90;;;;;;5000813;28;20663;-66
2022/08/24 07:03:22;;;;;;;9.45;7.53;;;28.20;99.90;;;;;;5002876;28;20192;-69
2022/08/24 07:05:53;;;;;;;12.77;8.60;;;27.10;99.90;;;;;;5007116;28;20276;-70
2022/08/24 07:08:19;;;;;;;11.68;8.32;;;26.70;99.90;;;;;;4998325;28;20217;-68
2022/08/24 07:10:45;;;;;;;11.68;8.57;;;26.40;99.90;;;;;;4999613;28;20679;-69
2022/08/24 07:13:13;;;;;;;13.95;9.70;;;26.20;99.90;;;;;;5000868;28;20212;-69
2022/08/24 07:15:39;;;;;;;13.48;10.70;;;25.70;99.90;;;;;;4999489;28;20215;-69
2022/08/24 07:18:08;;;;;;;15.52;10.95;;;25.50;99.90;;;;;;5005372;28;20204;-68
2022/08/24 07:20:35;;;;;;;21.35;12.57;;;25.10;99.90;;;;;;5003251;28;20205;-68
2022/08/24 07:23:00;;;;;;;17.40;12.63;;;25.10;99.90;;;;;;5005470;28;20209;-68
2022/08/24 07:25:28;;;;;;;19.48;12.45;;;25.00;99.90;;;;;;5002478;28;20319;-69
2022/08/24 07:27:54;;;;;;;18.85;12.50;;;25.10;99.90;;;;;;5004611;28;20700;-68
2022/08/24 07:30:19;;;;;;;19.73;11.77;;;25.00;99.90;;;;;;5003824;28;20185;-67
2022/08/24 07:32:45;;;;;;;18.80;12.65;;;25.30;99.90;;;;;;5002132;28;20212;-69
2022/08/24 07:35:10;;;;;;;23.23;12.52;;;25.50;99.90;;;;;;5006620;28;20577;-69
2022/08/24 07:37:36;;;;;;;17.67;11.48;;;25.30;99.90;;;;;;5003904;28;20697;-69
2022/08/24 07:40:03;;;;;;;19.42;11.63;;;25.30;99.90;;;;;;5002305;28;20352;-70
2022/08/24 07:42:28;;;;;;;17.42;10.70;;;25.40;99.90;;;;;;5004494;28;20708;-69
2022/08/24 07:44:54;;;;;;;17.42;10.38;;;25.60;99.90;;;;;;5004838;28;20340;-70
2022/08/24 07:47:20;;;;;;;16.27;10.38;;;25.80;99.90;;;;;;5006272;28;20224;-68
2022/08/24 07:49:45;;;;;;;15.80;9.73;;;25.90;99.90;;;;;;5001813;28;20982;-68
2022/08/24 07:52:12;;;;;;;15.50;9.73;;;25.90;99.90;;;;;;5005962;28;20283;-70
2022/08/24 07:54:37;;;;;;;15.30;9.63;;;26.10;99.90;;;;;;5002886;28;20698;-70
2022/08/24 07:57:05;;;;;;;16.23;9.82;;;26.20;99.90;;;;;;5005858;28;20247;-70
2022/08/24 07:59:31;;;;;;;14.18;8.98;;;26.50;99.90;;;;;;5006396;28;20291;-68
2022/08/24 08:01:57;;;;;;;24.23;10.30;;;26.70;99.90;;;;;;5004475;28;20343;-71
2022/08/24 08:04:24;;;;;;;23.50;11.00;;;27.20;99.90;;;;;;5004365;28;20592;-69
2022/08/24 08:06:51;;;;;;;13.45;9.15;;;27.50;99.90;;;;;;5005894;28;20201;-68
2022/08/24 08:09:16;;;;;;;53.50;15.50;;;27.60;99.90;;;;;;5003293;28;20181;-70
2022/08/24 08:11:43;;;;;;;31.13;12.35;;;27.50;99.90;;;;;;5003416;28;20717;-70
2022/08/24 08:14:08;;;;;;;15.43;10.30;;;27.20;99.90;;;;;;5002174;28;20538;-70
2022/08/24 08:16:34;;;;;;;34.03;12.93;;;27.50;99.90;;;;;;5003332;28;20223;-70
2022/08/24 08:19:00;;;;;;;21.67;10.27;;;27.50;99.90;;;;;;5005280;28;20670;-70
2022/08/24 08:24:17;;;;;;;42.97;12.85;;;28.20;99.90;;;;;;5003706;28;20251;-70
2022/08/24 08:26:43;;;;;;;28.13;12.30;;;28.70;99.90;;;;;;5001565;28;20229;-67
2022/08/24 08:29:11;;;;;;;22.83;11.00;;;28.80;99.90;;;;;;5003429;28;20686;-68
2022/08/24 08:31:37;;;;;;;15.52;9.23;;;28.60;99.90;;;;;;5002958;28;20264;-70
2022/08/24 08:34:03;;;;;;;17.63;10.98;;;28.40;99.90;;;;;;5005036;28;20197;-69
2022/08/24 08:36:29;;;;;;;18.17;10.68;;;28.00;99.90;;;;;;5004750;28;20177;-69
2022/08/24 08:38:55;;;;;;;15.55;10.35;;;27.60;99.90;;;;;;5005370;28;20658;-68
2022/08/24 08:41:47;;;;;;;17.33;11.07;;;27.30;99.90;;;;;;5001862;28;20215;-69
2022/08/24 08:44:32;;;;;;;16.27;10.07;;;27.30;99.90;;;;;;5002253;28;20206;-67
2022/08/24 08:47:26;;;;;;;16.13;10.88;;;28.50;99.90;;;;;;5002052;28;20368;-68
2022/08/24 08:50:13;;;;;;;26.05;11.55;;;28.90;99.90;;;;;;4997456;28;20205;-69
2022/08/24 08:52:54;;;;;;;21.85;9.10;;;28.90;99.90;;;;;;5000532;28;20252;-70
2022/08/24 08:55:32;;;;;;;20.50;9.82;;;29.40;99.90;;;;;;5005182;28;20225;-68
2022/08/24 08:58:45;;;;;;;21.52;10.57;;;29.40;99.90;;;;;;5007351;28;20180;-71
2022/08/24 09:01:17;;;;;;;18.85;9.13;;;29.50;99.90;;;;;;4964753;28;20219;-70
2022/08/24 09:03:59;;;;;;;12.32;8.80;;;29.30;99.90;;;;;;4961722;28;20186;-70
2022/08/24 09:06:37;;;;;;;9.73;7.65;;;28.70;99.90;;;;;;4987739;28;20220;-69
2022/08/24 09:09:11;;;;;;;12.63;7.75;;;29.10;99.90;;;;;;5003005;28;20213;-69
2022/08/24 09:11:59;;;;;;;37.97;10.98;;;28.90;99.90;;;;;;5001249;28;20275;-69
2022/08/24 09:14:52;;;;;;;21.60;9.35;;;28.90;99.90;;;;;;5000000;28;20218;-69
2022/08/24 09:17:37;;;;;;;31.75;10.60;;;29.40;99.90;;;;;;4999698;28;20209;-72
2022/08/24 09:20:41;;;;;;;11.05;8.05;;;29.20;99.90;;;;;;5003566;28;20728;-71
2022/08/24 09:23:31;;;;;;;14.25;8.75;;;28.70;99.90;;;;;;4982642;28;20295;-69
2022/08/24 09:26:11;;;;;;;12.05;8.73;;;27.70;99.90;;;;;;5001991;28;20213;-71
2022/08/24 09:28:44;;;;;;;14.23;9.85;;;27.30;99.90;;;;;;5000720;28;20209;-69
2022/08/24 09:31:25;;;;;;;13.52;9.57;;;26.80;99.90;;;;;;5002582;28;20209;-70
2022/08/24 09:34:15;;;;;;;14.80;9.63;;;26.70;99.90;;;;;;5001057;28;20523;-69
2022/08/24 09:36:52;;;;;;;28.08;12.23;;;26.40;99.90;;;;;;5005828;28;20170;-70
2022/08/24 09:39:36;;;;;;;90.03;21.90;;;26.60;99.90;;;;;;5017639;28;20487;-69
2022/08/24 09:42:20;;;;;;;35.25;13.25;;;26.70;99.90;;;;;;5005801;28;20214;-70
2022/08/24 09:44:49;;;;;;;139.10;30.80;;;26.60;99.90;;;;;;5016984;28;20213;-69
2022/08/24 09:47:21;;;;;;;34.65;15.15;;;26.60;99.90;;;;;;5001704;28;20690;-69
2022/08/24 09:50:02;;;;;;;61.97;20.55;;;26.50;99.90;;;;;;4999105;28;20275;-72
2022/08/24 09:52:54;;;;;;;28.67;13.70;;;26.40;99.90;;;;;;5003396;28;20300;-72
2022/08/24 09:58:20;;;;;;;43.47;15.05;;;26.10;99.90;;;;;;4999994;28;20210;-71
2022/08/24 10:01:04;;;;;;;30.92;16.70;;;26.20;99.90;;;;;;4997376;28;20181;-74
2022/08/24 10:03:35;;;;;;;22.90;13.07;;;26.50;99.90;;;;;;4977913;28;20201;-72
2022/08/24 10:06:30;;;;;;;57.22;20.60;;;26.40;99.90;;;;;;4975871;28;20730;-70
2022/08/24 10:09:22;;;;;;;25.73;13.23;;;26.40;99.90;;;;;;4975407;28;20599;-70
2022/08/24 10:12:06;;;;;;;20.58;12.52;;;26.50;99.90;;;;;;4969146;28;20747;-69
2022/08/24 10:14:44;;;;;;;35.28;14.77;;;26.50;99.90;;;;;;4980012;28;20213;-69
2022/08/24 10:17:47;;;;;;;29.83;14.77;;;26.50;99.90;;;;;;4981594;28;20296;-70
2022/08/24 10:20:19;;;;;;;21.52;14.45;;;26.60;99.90;;;;;;4974860;28;20672;-69
2022/08/24 10:22:57;;;;;;;32.08;13.95;;;26.60;99.90;;;;;;4975255;28;20295;-71
2022/08/24 10:25:44;;;;;;;16.77;12.25;;;26.70;99.90;;;;;;4973612;28;20209;-69
2022/08/24 10:28:42;;;;;;;19.27;11.07;;;26.60;99.90;;;;;;4978207;28;20220;-71
2022/08/24 10:31:25;;;;;;;16.10;11.40;;;26.40;99.90;;;;;;4980939;28;20276;-69
2022/08/24 10:34:12;;;;;;;14.60;11.18;;;26.30;99.90;;;;;;4977708;28;20225;-70
2022/08/24 10:37:02;;;;;;;17.70;13.38;;;26.40;99.90;;;;;;4975484;28;20210;-68
2022/08/24 10:39:48;;;;;;;18.73;11.65;;;26.60;99.90;;;;;;4978347;28;20227;-68
2022/08/24 10:45:09;;;;;;;15.70;10.65;;;27.30;99.90;;;;;;4991850;28;20216;-68
2022/08/24 10:47:36;;;;;;;28.52;14.75;;;27.10;99.90;;;;;;4996136;28;20209;-68
2022/08/24 10:50:19;;;;;;;27.88;12.60;;;27.20;99.90;;;;;;4994841;28;20301;-68
2022/08/24 10:53:12;;;;;;;65.97;16.67;;;27.20;99.90;;;;;;4990599;28;20688;-68
2022/08/24 10:55:38;;;;;;;22.75;11.98;;;27.60;99.90;;;;;;4994234;28;20213;-68
2022/08/24 10:58:36;;;;;;;16.88;10.82;;;27.60;99.90;;;;;;5000395;28;20193;-68
2022/08/24 11:01:20;;;;;;;17.67;10.13;;;28.20;99.90;;;;;;4994784;28;20667;-68
2022/08/24 11:03:54;;;;;;;15.27;10.20;;;28.00;99.90;;;;;;4995662;28;20179;-69
2022/08/24 11:06:22;;;;;;;22.52;11.50;;;27.80;99.90;;;;;;4986352;28;20189;-73
2022/08/24 11:08:57;;;;;;;27.23;14.07;;;27.60;99.90;;;;;;4992615;28;20214;-74
2022/08/24 11:11:39;;;;;;;26.63;15.93;;;28.30;99.90;;;;;;4993187;28;20219;-71
2022/08/24 11:14:24;;;;;;;496.20;89.35;;;28.50;99.90;;;;;;5004815;28;20213;-71
2022/08/24 11:16:50;;;;;;;62.83;18.13;;;28.30;99.90;;;;;;4975342;28;20593;-68
2022/08/24 11:19:32;;;;;;;74.97;18.67;;;28.50;99.90;;;;;;4976046;28;20226;-68
2022/08/24 11:22:23;;;;;;;26.35;10.50;;;28.80;99.90;;;;;;4968584;28;20209;-69
2022/08/24 11:24:52;;;;;;;130.52;32.38;;;28.40;99.90;;;;;;4970085;28;20248;-68
2022/08/24 11:27:31;;;;;;;16.30;9.80;;;28.30;99.90;;;;;;4982208;28;20674;-67
2022/08/24 11:30:01;;;;;;;14.05;9.82;;;28.00;99.90;;;;;;4982107;28;20224;-67
2022/08/24 11:32:31;;;;;;;16.13;9.05;;;28.00;99.90;;;;;;4975734;28;20572;-67
2022/08/24 11:35:13;;;;;;;21.38;11.00;;;27.60;99.90;;;;;;4981185;28;20355;-68
2022/08/24 11:37:39;;;;;;;408.98;66.47;;;27.50;99.90;;;;;;4978317;28;20339;-68
2022/08/24 11:40:06;;;;;;;62.13;17.50;;;27.70;99.90;;;;;;4988332;28;20304;-68
2022/08/24 11:42:34;;;;;;;296.52;52.72;;;27.90;99.90;;;;;;4977863;28;20205;-67
2022/08/24 11:45:02;;;;;;;89.03;19.38;;;28.20;99.90;;;;;;4975283;28;20213;-67
2022/08/24 11:47:46;;;;;;;20.38;10.32;;;28.50;99.90;;;;;;4979018;28;20649;-68
2022/08/24 11:50:21;;;;;;;30.75;11.93;;;28.70;99.90;;;;;;4989463;28;20209;-71
2022/08/24 11:52:58;;;;;;;29.23;10.05;;;28.70;99.90;;;;;;4995354;28;20241;-71
2022/08/24 11:55:40;;;;;;;14.38;9.77;;;28.50;99.90;;;;;;4999794;28;20257;-69
2022/08/24 11:58:23;;;;;;;16.30;9.13;;;28.60;99.90;;;;;;4999408;28;20216;-73
2022/08/24 12:00:59;;;;;;;14.75;8.13;;;28.60;99.90;;;;;;4993695;28;20186;-68
2022/08/24 12:03:44;;;;;;;12.25;9.02;;;28.10;99.90;;;;;;4999049;28;20268;-69
2022/08/24 12:06:20;;;;;;;13.50;9.05;;;28.00;99.90;;;;;;5000470;28;20221;-69
2022/08/24 12:08:59;;;;;;;14.88;9.00;;;27.60;99.90;;;;;;5000733;28;20209;-69
2022/08/24 12:12:01;;;;;;;11.05;8.73;;;27.50;99.90;;;;;;5002556;28;20214;-69
2022/08/24 12:14:39;;;;;;;22.58;9.90;;;27.70;99.90;;;;;;4998952;28;20228;-69
2022/08/24 12:17:23;;;;;;;93.13;19.48;;;27.90;99.90;;;;;;5001684;28;20299;-70
2022/08/24 12:19:54;;;;;;;67.85;17.95;;;28.20;99.90;;;;;;5000620;28;20213;-69
2022/08/24 12:22:21;;;;;;;14.73;9.23;;;28.40;99.90;;;;;;5002511;28;20217;-69
2022/08/24 12:24:59;;;;;;;16.60;11.00;;;28.50;99.90;;;;;;5001374;28;20670;-69
2022/08/24 12:27:28;;;;;;;14.23;9.00;;;28.70;99.90;;;;;;5003636;28;20201;-69
2022/08/24 12:30:12;;;;;;;12.00;8.95;;;28.50;99.90;;;;;;5004200;28;20212;-69
2022/08/24 12:32:40;;;;;;;14.13;8.88;;;28.20;99.90;;;;;;5000087;28;20202;-69
2022/08/24 12:35:44;;;;;;;12.43;8.80;;;27.80;99.90;;;;;;5004557;28;20263;-70
2022/08/24 12:38:27;;;;;;;14.35;8.00;;;27.60;99.90;;;;;;4961311;28;20234;-69
2022/08/24 12:41:06;;;;;;;40.22;15.10;;;27.70;99.90;;;;;;4980992;28;20216;-69
2022/08/24 12:44:10;;;;;;;13.98;9.32;;;28.10;99.90;;;;;;4982003;28;20206;-68
2022/08/24 12:46:36;;;;;;;12.00;8.07;;;28.40;99.90;;;;;;4958095;28;20364;-69
2022/08/24 12:49:22;;;;;;;32.35;11.82;;;28.40;99.90;;;;;;4982607;28;20606;-70
2022/08/24 12:51:58;;;;;;;11.43;8.20;;;28.60;99.90;;;;;;4982313;28;20189;-69
2022/08/24 12:54:52;;;;;;;13.50;8.15;;;28.70;99.90;;;;;;4983132;28;20186;-70
2022/08/24 12:57:48;;;;;;;11.88;9.30;;;28.60;99.90;;;;;;5000747;28;20229;-70
2022/08/24 13:00:25;;;;;;;31.55;10.55;;;27.90;99.90;;;;;;4997652;28;20229;-69
2022/08/24 13:03:00;;;;;;;17.98;11.15;;;27.60;99.90;;;;;;4999263;28;20226;-69
2022/08/24 13:05:47;;;;;;;18.17;11.23;;;27.60;99.90;;;;;;4999658;28;20225;-69
2022/08/24 13:08:34;;;;;;;11.48;6.30;;;27.50;99.90;;;;;;4992582;28;20207;-69
2022/08/24 13:11:22;;;;;;;9.27;7.05;;;27.20;99.90;;;;;;4996165;28;20622;-69
2022/08/24 13:13:57;;;;;;;10.52;7.57;;;27.30;99.90;;;;;;4992880;28;20686;-69